Terminal Aerodrome Forecast
Issued by NWS

Home | Current Version | Previous Version | Text Only | Print | Product List | Glossary On
Versions: 1 2 3 4 5 6 7 8 9 10 11 12 13
000
FTUS44 KLZK 252300
TAFPBF
TAF
KPBF 252340Z 2600/2624 29018G26KT P6SM OVC070
     FM260600 32009G17KT P6SM OVC050
     FM260800 30006KT P6SM SCT020 OVC050
     FM261700 28008KT P6SM SCT050=

USA.gov is the U.S. government's official web portal to all federal, state and local government web resources and services.